Terminal Aerodrome Forecast
Issued by NWS Billings, MT

Home | Current Version | Previous Version | Text Only | Print | Product List | Glossary On
Versions: 1 2 3 4 5 6 7 8 9 10 11 12 13 14 15 16 17 18 19 20 21 22 23 24 25 26 27 28 29 30 31 32 33
000
FTUS45 KBYZ 261558 AAC
TAFBIL
TAF AMD
KBIL 261558Z 2616/2712 18003KT 3/4SM -SN BR BKN003 OVC019
      TEMPO 2616/2618 2SM -SN BR SCT003 OVC015
     FM261900 06008KT 4SM -SN BR OVC015
     FM262200 10008KT P6SM VCSH SCT040 OVC060
     FM270400 22009KT P6SM BKN100=

USA.gov is the U.S. government's official web portal to all federal, state and local government web resources and services.